Time;durP1;ratioP1;P1;durP2;ratioP2;P2;SDS_P1;SDS_P2;PMS_P1;PMS_P2;Temp;Humidity;BMP_temperature;BMP_pressure;BME280_temperature;BME280_humidity;BME280_pressure;Samples;Min_cycle;Max_cycle;Signal;HPM_P1;HPM_P2
2021/04/10 00:00:29;;;;;;;13.10;10.07;;;14.10;52.50;;;;;;1492744;39;20031;-61
2021/04/10 00:01:50;;;;;;;14.40;9.90;;;14.10;52.50;;;;;;1492026;39;20339;-60
2021/04/10 00:03:12;;;;;;;12.23;9.57;;;14.10;52.50;;;;;;1493080;39;20027;-60
2021/04/10 00:04:33;;;;;;;12.45;9.80;;;14.10;52.60;;;;;;1491744;39;20046;-60
2021/04/10 00:05:53;;;;;;;12.65;9.82;;;14.00;52.50;;;;;;1493041;39;20035;-60
2021/04/10 00:07:14;;;;;;;13.35;10.02;;;14.00;52.60;;;;;;1495498;39;20414;-61
2021/04/10 00:08:35;;;;;;;13.02;10.13;;;14.00;52.60;;;;;;1492018;39;20040;-60
2021/04/10 00:09:56;;;;;;;12.70;10.13;;;14.00;52.70;;;;;;1492419;39;20143;-60
2021/04/10 00:11:17;;;;;;;14.00;11.07;;;14.00;52.70;;;;;;1492521;39;20016;-60
2021/04/10 00:12:40;;;;;;;12.95;10.18;;;14.00;52.80;;;;;;1492609;39;20147;-60
2021/04/10 00:14:05;;;;;;;14.98;10.52;;;13.90;52.90;;;;;;1493536;39;20023;-60
2021/04/10 00:15:29;;;;;;;16.50;10.45;;;13.90;53.00;;;;;;1493787;39;20038;-60
2021/04/10 00:16:49;;;;;;;12.20;10.18;;;13.90;53.50;;;;;;1491229;39;20040;-60
2021/04/10 00:18:10;;;;;;;12.20;9.90;;;13.90;52.90;;;;;;1493938;39;20410;-60
2021/04/10 00:19:32;;;;;;;11.02;9.70;;;13.90;52.90;;;;;;1489062;39;20039;-60
2021/04/10 00:20:53;;;;;;;12.80;10.55;;;13.80;53.00;;;;;;1491706;39;20031;-60
2021/04/10 00:22:14;;;;;;;13.20;10.07;;;13.80;53.00;;;;;;1493078;39;20267;-60
2021/04/10 00:23:42;;;;;;;14.43;10.45;;;13.80;53.00;;;;;;1493312;39;20052;-60
2021/04/10 00:25:05;;;;;;;13.15;10.77;;;13.80;53.00;;;;;;1494123;39;20019;-60
2021/04/10 00:26:26;;;;;;;14.00;10.90;;;13.80;53.10;;;;;;1494405;39;20050;-60
2021/04/10 00:27:48;;;;;;;14.40;11.35;;;13.80;53.20;;;;;;1494676;39;20031;-60
2021/04/10 00:29:09;;;;;;;12.50;10.65;;;13.80;53.30;;;;;;1494434;39;20058;-61
2021/04/10 00:30:30;;;;;;;14.18;11.05;;;13.70;53.30;;;;;;1493532;39;20051;-60
2021/04/10 00:31:51;;;;;;;13.15;10.90;;;13.70;53.40;;;;;;1492232;39;20032;-60
2021/04/10 00:33:12;;;;;;;13.38;10.40;;;13.70;53.50;;;;;;1493982;39;20032;-60
2021/04/10 00:34:33;;;;;;;12.38;10.18;;;13.70;53.50;;;;;;1492212;39;20061;-60
2021/04/10 00:35:54;;;;;;;14.50;11.23;;;13.70;53.60;;;;;;1491550;39;20230;-60
2021/04/10 00:37:15;;;;;;;13.43;11.05;;;13.70;53.70;;;;;;1491971;39;20043;-59
2021/04/10 00:38:37;;;;;;;12.60;11.05;;;13.70;53.80;;;;;;1492798;39;20038;-60
2021/04/10 00:39:58;;;;;;;14.52;10.27;;;13.70;53.90;;;;;;1489275;39;20285;-60
2021/04/10 00:41:19;;;;;;;15.10;10.98;;;13.70;53.80;;;;;;1493132;39;20058;-60
2021/04/10 00:42:40;;;;;;;11.38;10.18;;;13.60;53.80;;;;;;1493271;39;20275;-60
2021/04/10 00:44:01;;;;;;;11.48;9.82;;;13.60;53.80;;;;;;1491009;39;20035;-60
2021/04/10 00:45:22;;;;;;;12.07;10.77;;;13.60;53.90;;;;;;1492730;39;20281;-60
2021/04/10 00:46:43;;;;;;;14.45;10.82;;;13.60;54.10;;;;;;1491909;39;20061;-60
2021/04/10 00:48:04;;;;;;;14.65;11.25;;;13.60;54.20;;;;;;1491382;39;20063;-60
2021/04/10 00:49:26;;;;;;;13.70;12.00;;;13.70;54.40;;;;;;1492310;39;20108;-60
2021/04/10 00:50:47;;;;;;;12.68;11.35;;;13.60;54.40;;;;;;1495262;39;20051;-60
2021/04/10 00:52:10;;;;;;;15.48;11.43;;;13.60;54.60;;;;;;1492820;39;20123;-60
2021/04/10 00:53:33;;;;;;;13.48;11.57;;;13.60;54.70;;;;;;1494408;39;20042;-60
2021/04/10 00:54:55;;;;;;;11.95;10.68;;;13.60;54.70;;;;;;1493010;39;20079;-59
2021/04/10 00:56:16;;;;;;;16.85;11.50;;;13.60;54.60;;;;;;1493669;39;20027;-60
2021/04/10 00:57:37;;;;;;;14.43;11.30;;;13.60;54.60;;;;;;1493239;39;20128;-60
2021/04/10 00:58:58;;;;;;;14.52;11.40;;;13.60;54.80;;;;;;1490614;39;20034;-60
2021/04/10 01:00:20;;;;;;;14.68;11.30;;;13.60;54.80;;;;;;1492127;39;20263;-60
2021/04/10 01:01:41;;;;;;;15.68;11.60;;;13.60;54.80;;;;;;1491352;39;20031;-60
2021/04/10 01:03:03;;;;;;;13.05;11.63;;;13.60;54.90;;;;;;1493297;39;20191;-60
2021/04/10 01:04:24;;;;;;;14.23;11.38;;;13.60;55.10;;;;;;1494783;39;20416;-60
2021/04/10 01:05:45;;;;;;;13.23;11.48;;;13.60;55.10;;;;;;1493220;39;20051;-58
2021/04/10 01:07:06;;;;;;;14.90;11.50;;;13.60;55.20;;;;;;1492992;39;20027;-59
2021/04/10 01:08:28;;;;;;;12.73;11.27;;;13.60;55.20;;;;;;1493378;39;20031;-60
2021/04/10 01:09:50;;;;;;;13.65;10.85;;;13.60;55.30;;;;;;1492984;39;20359;-59
2021/04/10 01:11:32;;;;;;;15.63;10.80;;;13.60;55.30;;;;;;1494084;39;20237;-59
2021/04/10 01:13:36;;;;;;;10.90;9.70;;;13.60;55.90;;;;;;1491615;39;20093;-59
2021/04/10 01:15:10;;;;;;;11.00;9.77;;;13.60;55.80;;;;;;1491895;39;20036;-59
2021/04/10 01:16:42;;;;;;;12.88;10.50;;;13.60;55.00;;;;;;1497113;39;20034;-60
2021/04/10 01:18:15;;;;;;;14.70;9.82;;;13.60;55.50;;;;;;1496825;39;20253;-58
2021/04/10 01:20:07;;;;;;;14.68;11.43;;;13.60;55.50;;;;;;1497509;39;20046;-60
2021/04/10 01:21:41;;;;;;;16.13;10.88;;;13.60;55.90;;;;;;1492312;39;20022;-59
2021/04/10 01:23:10;;;;;;;13.38;10.35;;;13.60;55.70;;;;;;1492441;39;20042;-59
2021/04/10 01:24:57;;;;;;;13.32;10.80;;;13.60;55.30;;;;;;1497387;39;20138;-61
2021/04/10 01:26:44;;;;;;;12.68;10.45;;;13.60;55.90;;;;;;1497815;39;20131;-59
2021/04/10 01:28:26;;;;;;;14.07;10.80;;;13.60;55.70;;;;;;1492160;39;20043;-59
2021/04/10 01:29:53;;;;;;;12.13;10.18;;;13.60;55.50;;;;;;1492982;39;20019;-60
2021/04/10 01:31:21;;;;;;;12.82;10.70;;;13.60;55.50;;;;;;1497846;39;20026;-59
2021/04/10 01:33:00;;;;;;;16.23;11.18;;;13.50;55.60;;;;;;1496666;39;20031;-60
2021/04/10 01:34:34;;;;;;;13.00;11.15;;;13.60;56.20;;;;;;1497519;39;20051;-60
2021/04/10 01:35:58;;;;;;;13.80;10.85;;;13.50;56.00;;;;;;1494805;39;20045;-60
2021/04/10 01:37:24;;;;;;;14.90;11.73;;;13.50;55.60;;;;;;1496067;39;20034;-60
2021/04/10 01:38:48;;;;;;;13.93;11.70;;;13.50;56.40;;;;;;1495125;39;20039;-60
2021/04/10 01:40:12;;;;;;;13.55;11.02;;;13.50;55.90;;;;;;1496700;39;20019;-61
2021/04/10 01:41:34;;;;;;;14.55;11.38;;;13.50;56.00;;;;;;1492348;39;20122;-59
2021/04/10 01:42:57;;;;;;;13.27;11.60;;;13.50;56.00;;;;;;1494155;39;20642;-58
2021/04/10 01:44:19;;;;;;;14.50;11.50;;;13.50;56.10;;;;;;1497469;39;20014;-59
2021/04/10 01:45:41;;;;;;;13.93;11.13;;;13.50;56.10;;;;;;1489945;39;20035;-61
2021/04/10 01:47:04;;;;;;;13.73;10.70;;;13.50;56.10;;;;;;1493385;39;20024;-60
2021/04/10 01:48:27;;;;;;;16.65;11.95;;;13.50;56.20;;;;;;1493626;39;20032;-61
2021/04/10 01:49:50;;;;;;;15.82;12.25;;;13.40;56.30;;;;;;1498200;39;20030;-60
2021/04/10 01:51:12;;;;;;;13.50;10.98;;;13.40;56.40;;;;;;1496944;39;20089;-59
2021/04/10 01:52:34;;;;;;;13.55;11.70;;;13.50;56.30;;;;;;1497613;39;20035;-60
2021/04/10 01:53:56;;;;;;;14.98;11.63;;;13.40;56.20;;;;;;1497475;39;20035;-59
2021/04/10 01:55:18;;;;;;;15.77;11.50;;;13.40;56.30;;;;;;1494314;39;20015;-60
2021/04/10 01:56:44;;;;;;;14.85;12.00;;;13.40;56.30;;;;;;1496423;39;20043;-60
2021/04/10 01:58:06;;;;;;;14.60;12.07;;;13.40;56.50;;;;;;1496456;39;20466;-60
2021/04/10 01:59:28;;;;;;;14.57;11.85;;;13.40;56.30;;;;;;1495588;39;20054;-60
2021/04/10 02:00:50;;;;;;;14.82;11.90;;;13.40;56.40;;;;;;1495750;39;20072;-60
2021/04/10 02:02:12;;;;;;;16.88;12.68;;;13.40;56.30;;;;;;1497314;39;20037;-59
2021/04/10 02:03:34;;;;;;;13.48;11.40;;;13.30;56.20;;;;;;1495881;39;20476;-60
2021/04/10 02:04:56;;;;;;;13.13;11.45;;;13.30;56.30;;;;;;1496359;39;20034;-60
2021/04/10 02:06:17;;;;;;;15.32;12.45;;;13.30;56.30;;;;;;1496984;39;20403;-59
2021/04/10 02:07:42;;;;;;;14.23;11.52;;;13.30;56.40;;;;;;1498219;39;20331;-60
2021/04/10 02:09:04;;;;;;;17.13;11.60;;;13.30;56.60;;;;;;1495506;39;20024;-60
2021/04/10 02:10:26;;;;;;;15.38;11.80;;;13.20;56.40;;;;;;1496949;39;20039;-58
2021/04/10 02:11:50;;;;;;;13.48;11.43;;;13.20;56.40;;;;;;1499732;39;20031;-60
2021/04/10 02:13:12;;;;;;;12.82;11.00;;;13.20;56.50;;;;;;1496547;39;20360;-59
2021/04/10 02:14:34;;;;;;;13.65;11.65;;;13.20;56.50;;;;;;1493103;39;20019;-60
2021/04/10 02:15:54;;;;;;;14.77;12.02;;;13.20;56.50;;;;;;1494718;39;20041;-59
2021/04/10 02:17:19;;;;;;;17.15;12.15;;;13.10;56.50;;;;;;1497518;39;20053;-60
2021/04/10 02:18:41;;;;;;;13.27;11.15;;;13.10;56.70;;;;;;1497536;39;20046;-60
2021/04/10 02:20:09;;;;;;;12.50;10.30;;;13.20;56.60;;;;;;1495318;39;20015;-59
2021/04/10 02:21:32;;;;;;;12.05;10.85;;;13.10;56.70;;;;;;1493681;39;20043;-60
2021/04/10 02:22:56;;;;;;;14.05;11.13;;;13.10;56.50;;;;;;1495130;39;20024;-59
2021/04/10 02:24:17;;;;;;;15.38;11.13;;;13.10;56.50;;;;;;1498463;39;20593;-60
2021/04/10 02:25:38;;;;;;;15.07;11.55;;;13.10;56.50;;;;;;1496753;39;20023;-59
2021/04/10 02:26:58;;;;;;;14.63;12.10;;;13.00;56.50;;;;;;1494769;39;20027;-60
2021/04/10 02:28:19;;;;;;;15.82;12.05;;;13.00;56.60;;;;;;1495798;39;20047;-59
2021/04/10 02:29:42;;;;;;;16.13;11.85;;;13.00;56.60;;;;;;1496222;39;20124;-60
2021/04/10 02:31:04;;;;;;;13.82;10.93;;;13.00;56.70;;;;;;1494289;39;20187;-59
2021/04/10 02:32:34;;;;;;;16.55;11.40;;;13.00;56.70;;;;;;1498391;39;20038;-60
2021/04/10 02:33:59;;;;;;;;;;;13.00;56.80;;;;;;1491132;39;20036;-60
2021/04/10 02:35:59;;;;;;;14.63;10.30;;;13.00;57.10;;;;;;1494679;39;19931;-59
2021/04/10 02:37:21;;;;;;;14.55;11.10;;;12.90;57.00;;;;;;1476715;40;20033;-60
2021/04/10 02:38:43;;;;;;;11.75;10.55;;;13.00;56.30;;;;;;1475037;40;20100;-60
2021/04/10 02:40:05;;;;;;;14.23;12.35;;;12.90;56.40;;;;;;1473911;40;20406;-60
2021/04/10 02:41:27;;;;;;;14.05;11.80;;;12.90;56.50;;;;;;1473524;40;20566;-59
2021/04/10 02:42:48;;;;;;;17.70;12.35;;;12.90;56.70;;;;;;1485524;39;20043;-59
2021/04/10 02:44:11;;;;;;;19.23;12.55;;;12.90;56.80;;;;;;1496182;39;20035;-59
2021/04/10 02:45:33;;;;;;;15.00;12.30;;;12.80;56.80;;;;;;1496156;39;20103;-59
2021/04/10 02:47:00;;;;;;;12.98;11.65;;;12.80;57.00;;;;;;1497321;39;20066;-61
2021/04/10 02:48:24;;;;;;;14.50;12.40;;;12.80;57.30;;;;;;1498451;39;20055;-60
2021/04/10 02:49:52;;;;;;;14.20;12.13;;;12.80;57.20;;;;;;1497458;39;20119;-60
2021/04/10 02:51:14;;;;;;;16.70;12.23;;;12.80;57.40;;;;;;1496433;39;20031;-59
2021/04/10 02:52:40;;;;;;;15.48;13.27;;;12.70;57.20;;;;;;1498409;39;20031;-60
2021/04/10 02:54:03;;;;;;;14.82;12.07;;;12.70;57.50;;;;;;1498966;39;20023;-60
2021/04/10 02:55:35;;;;;;;13.13;11.77;;;12.70;57.60;;;;;;1499138;39;20043;-60
2021/04/10 02:57:06;;;;;;;15.82;13.32;;;12.70;57.80;;;;;;1494433;39;20427;-59
2021/04/10 02:58:30;;;;;;;14.20;11.95;;;12.70;57.70;;;;;;1497651;39;20356;-59
2021/04/10 02:59:56;;;;;;;14.25;12.60;;;12.70;57.60;;;;;;1496327;39;20340;-60
2021/04/10 03:01:19;;;;;;;15.05;13.02;;;12.70;57.70;;;;;;1495951;39;20251;-59
2021/04/10 03:02:41;;;;;;;14.27;12.75;;;12.70;57.70;;;;;;1497411;39;20051;-59
2021/04/10 03:04:02;;;;;;;15.93;12.18;;;12.70;57.70;;;;;;1497358;39;20107;-59
2021/04/10 03:05:24;;;;;;;14.07;12.57;;;12.70;57.80;;;;;;1497392;39;20400;-61
2021/04/10 03:06:45;;;;;;;13.68;11.77;;;12.70;57.90;;;;;;1494986;39;20094;-60
2021/04/10 03:08:08;;;;;;;16.77;13.18;;;12.70;58.00;;;;;;1492394;39;20392;-60
2021/04/10 03:09:29;;;;;;;15.32;12.60;;;12.70;58.00;;;;;;1494882;39;20107;-59
2021/04/10 03:10:52;;;;;;;17.33;13.00;;;12.70;58.00;;;;;;1496633;39;20408;-60
2021/04/10 03:12:15;;;;;;;17.33;12.55;;;12.70;58.10;;;;;;1497053;39;20031;-60
2021/04/10 03:13:38;;;;;;;16.13;13.13;;;12.70;58.10;;;;;;1497532;39;20042;-60
2021/04/10 03:14:59;;;;;;;15.60;13.48;;;12.70;58.20;;;;;;1497518;39;20127;-59
2021/04/10 03:16:21;;;;;;;13.60;11.55;;;12.70;58.20;;;;;;1498010;39;20053;-59
2021/04/10 03:17:42;;;;;;;14.07;12.52;;;12.70;58.20;;;;;;1497799;39;20356;-60
2021/04/10 03:19:07;;;;;;;15.88;13.13;;;12.70;58.30;;;;;;1495387;39;20057;-59
2021/04/10 03:20:29;;;;;;;18.13;13.65;;;12.70;58.50;;;;;;1496290;39;20039;-59
2021/04/10 03:21:50;;;;;;;15.80;12.65;;;12.70;58.40;;;;;;1495563;39;20026;-59
2021/04/10 03:23:11;;;;;;;19.35;12.98;;;12.70;58.40;;;;;;1496070;39;20039;-59
2021/04/10 03:24:32;;;;;;;15.73;13.70;;;12.70;58.40;;;;;;1495498;39;20071;-61
2021/04/10 03:25:53;;;;;;;16.95;13.15;;;12.80;58.50;;;;;;1495750;39;20034;-61
2021/04/10 03:27:14;;;;;;;14.55;12.77;;;12.80;58.50;;;;;;1496924;39;20107;-60
2021/04/10 03:28:36;;;;;;;14.68;12.80;;;12.80;58.50;;;;;;1497664;39;20038;-59
2021/04/10 03:29:58;;;;;;;15.52;12.75;;;12.80;58.60;;;;;;1497249;39;20023;-60
2021/04/10 03:31:19;;;;;;;15.40;13.23;;;12.80;58.50;;;;;;1497991;39;20290;-59
2021/04/10 03:32:43;;;;;;;15.25;12.65;;;12.80;58.50;;;;;;1493210;39;20047;-60
2021/04/10 03:34:06;;;;;;;13.70;12.27;;;12.80;58.50;;;;;;1489768;39;20052;-60
2021/04/10 03:35:27;;;;;;;14.27;11.50;;;12.80;58.50;;;;;;1496026;39;20043;-60
2021/04/10 03:36:48;;;;;;;15.50;12.55;;;12.80;58.50;;;;;;1494545;39;20038;-59
2021/04/10 03:38:09;;;;;;;17.35;12.93;;;12.70;58.40;;;;;;1496720;39;20015;-60
2021/04/10 03:39:30;;;;;;;17.98;13.10;;;12.70;58.40;;;;;;1496735;39;20027;-59
2021/04/10 03:40:51;;;;;;;13.95;12.43;;;12.70;58.40;;;;;;1493769;39;20054;-59
2021/04/10 03:42:13;;;;;;;15.80;12.85;;;12.70;58.40;;;;;;1497996;39;20172;-60
2021/04/10 03:43:34;;;;;;;18.40;13.70;;;12.70;58.50;;;;;;1498454;39;20043;-59
2021/04/10 03:44:55;;;;;;;16.27;13.48;;;12.70;58.50;;;;;;1498045;39;20086;-60
2021/04/10 03:46:16;;;;;;;16.13;13.40;;;12.70;58.50;;;;;;1498189;39;20031;-60
2021/04/10 03:47:37;;;;;;;16.05;13.80;;;12.70;58.60;;;;;;1497801;39;20030;-61
2021/04/10 03:48:58;;;;;;;17.73;13.85;;;12.70;58.70;;;;;;1494186;39;20180;-59
2021/04/10 03:50:21;;;;;;;17.77;14.15;;;12.60;58.60;;;;;;1497894;39;20027;-61
2021/04/10 03:51:42;;;;;;;16.27;13.30;;;12.60;58.70;;;;;;1495914;39;20043;-60
2021/04/10 03:53:03;;;;;;;19.63;14.35;;;12.60;58.70;;;;;;1492487;39;20341;-59
2021/04/10 03:54:24;;;;;;;17.73;13.48;;;12.60;58.60;;;;;;1496259;39;20263;-60
2021/04/10 03:55:45;;;;;;;17.80;13.45;;;12.60;58.70;;;;;;1497588;39;20118;-60
2021/04/10 03:57:06;;;;;;;17.25;13.85;;;12.60;58.70;;;;;;1496670;39;20039;-60
2021/04/10 03:58:27;;;;;;;15.70;13.63;;;12.60;58.70;;;;;;1498708;39;20043;-59
2021/04/10 03:59:48;;;;;;;17.10;14.15;;;12.60;58.70;;;;;;1497117;39;20031;-59
2021/04/10 04:01:09;;;;;;;16.20;13.52;;;12.60;58.80;;;;;;1492263;39;20103;-59
2021/04/10 04:02:30;;;;;;;17.98;14.07;;;12.60;58.70;;;;;;1495602;39;20349;-59
2021/04/10 04:03:51;;;;;;;15.75;13.27;;;12.60;58.80;;;;;;1494553;39;20027;-59
2021/04/10 04:05:12;;;;;;;17.08;14.02;;;12.50;59.40;;;;;;1497929;39;20050;-59
2021/04/10 04:06:33;;;;;;;15.93;12.65;;;12.50;59.40;;;;;;1496210;39;20342;-60
2021/04/10 04:07:54;;;;;;;15.07;12.65;;;12.50;59.00;;;;;;1498809;39;20125;-60
2021/04/10 04:09:15;;;;;;;15.63;13.18;;;12.50;59.00;;;;;;1498321;39;20376;-60
2021/04/10 04:10:35;;;;;;;15.57;12.95;;;12.50;59.00;;;;;;1497004;39;20039;-60
2021/04/10 04:11:56;;;;;;;15.40;13.32;;;12.50;59.10;;;;;;1496248;39;20059;-59
2021/04/10 04:13:17;;;;;;;15.60;13.77;;;12.50;59.10;;;;;;1498407;39;20057;-60
2021/04/10 04:14:39;;;;;;;17.70;13.15;;;12.50;59.10;;;;;;1495985;39;20095;-59
2021/04/10 04:16:00;;;;;;;17.33;13.27;;;12.50;59.20;;;;;;1496228;39;20027;-60
2021/04/10 04:17:21;;;;;;;18.35;14.00;;;12.50;59.10;;;;;;1497529;39;20035;-59
2021/04/10 04:18:42;;;;;;;15.55;13.23;;;12.50;59.10;;;;;;1497859;39;20111;-60
2021/04/10 04:20:04;;;;;;;14.60;12.60;;;12.50;59.20;;;;;;1497598;39;20019;-60
2021/04/10 04:21:25;;;;;;;18.48;13.80;;;12.60;59.20;;;;;;1496944;39;20031;-61
2021/04/10 04:22:46;;;;;;;15.93;14.20;;;12.60;59.20;;;;;;1495788;39;20091;-60
2021/04/10 04:24:07;;;;;;;15.85;13.10;;;12.50;59.10;;;;;;1497958;39;20026;-60
2021/04/10 04:25:28;;;;;;;16.80;12.95;;;12.60;59.20;;;;;;1497763;39;20071;-59
2021/04/10 04:26:49;;;;;;;13.85;12.38;;;12.60;59.20;;;;;;1494839;39;20028;-59
2021/04/10 04:28:10;;;;;;;18.77;14.05;;;12.60;59.20;;;;;;1493011;39;20112;-59
2021/04/10 04:29:31;;;;;;;14.85;13.23;;;12.50;59.20;;;;;;1492485;39;20035;-59
2021/04/10 04:30:52;;;;;;;15.85;13.80;;;12.50;59.20;;;;;;1498720;39;20030;-59
2021/04/10 04:32:13;;;;;;;16.38;13.70;;;12.60;59.20;;;;;;1499683;39;20038;-61
2021/04/10 04:33:34;;;;;;;16.92;13.88;;;12.60;59.20;;;;;;1497038;39;20089;-60
2021/04/10 04:34:55;;;;;;;16.02;14.32;;;12.60;59.20;;;;;;1496271;39;20349;-61
2021/04/10 04:36:16;;;;;;;17.35;14.43;;;12.60;59.20;;;;;;1497788;39;20059;-60
2021/04/10 04:37:36;;;;;;;17.95;14.93;;;12.60;59.20;;;;;;1496452;39;20035;-60
2021/04/10 04:38:57;;;;;;;16.83;14.38;;;12.60;59.20;;;;;;1497221;39;20015;-59
2021/04/10 04:40:18;;;;;;;18.02;14.52;;;12.60;59.20;;;;;;1494636;39;20031;-60
2021/04/10 04:41:39;;;;;;;17.55;15.45;;;12.60;59.30;;;;;;1494054;39;20046;-60
2021/04/10 04:43:00;;;;;;;19.30;15.73;;;12.60;59.20;;;;;;1498353;39;20033;-59
2021/04/10 04:44:21;;;;;;;19.58;15.25;;;12.60;59.30;;;;;;1498734;39;20031;-58
2021/04/10 04:45:42;;;;;;;17.70;14.57;;;12.60;59.30;;;;;;1497480;39;20508;-59
2021/04/10 04:47:03;;;;;;;20.15;15.43;;;12.60;59.20;;;;;;1493638;39;20023;-61
2021/04/10 04:48:24;;;;;;;16.45;14.02;;;12.60;59.20;;;;;;1496103;39;20252;-60
2021/04/10 04:49:45;;;;;;;20.45;14.40;;;12.60;59.20;;;;;;1496701;39;20023;-60
2021/04/10 04:51:06;;;;;;;18.45;14.85;;;12.60;59.20;;;;;;1497012;39;20027;-60
2021/04/10 04:52:31;;;;;;;15.23;13.52;;;12.50;59.20;;;;;;1492848;39;20465;-60
2021/04/10 04:53:52;;;;;;;18.98;14.68;;;12.50;59.40;;;;;;1497203;39;20031;-60
2021/04/10 04:55:13;;;;;;;17.27;14.43;;;12.50;59.30;;;;;;1497515;39;20039;-61
2021/04/10 04:56:34;;;;;;;16.02;14.30;;;12.50;59.20;;;;;;1497258;39;20183;-59
2021/04/10 04:57:55;;;;;;;19.02;14.75;;;12.50;59.70;;;;;;1497299;39;20354;-60
2021/04/10 04:59:16;;;;;;;16.20;13.85;;;12.50;59.20;;;;;;1497928;39;20123;-59
2021/04/10 05:00:37;;;;;;;15.80;13.23;;;12.60;59.20;;;;;;1492440;39;20509;-60
2021/04/10 05:01:58;;;;;;;18.17;14.32;;;12.50;59.10;;;;;;1495995;39;20030;-59
2021/04/10 05:03:19;;;;;;;17.33;14.30;;;12.50;59.10;;;;;;1496548;39;20067;-60
2021/04/10 05:04:40;;;;;;;16.77;14.45;;;12.60;59.20;;;;;;1496681;39;20247;-61
2021/04/10 05:06:01;;;;;;;14.95;13.20;;;12.50;59.10;;;;;;1498954;39;20358;-60
2021/04/10 05:07:22;;;;;;;16.15;13.80;;;12.50;59.10;;;;;;1499138;39;20080;-60
2021/04/10 05:08:43;;;;;;;15.30;13.25;;;12.50;59.10;;;;;;1498460;39;20063;-60
2021/04/10 05:10:04;;;;;;;16.50;13.73;;;12.50;59.20;;;;;;1495881;39;20276;-60
2021/04/10 05:11:25;;;;;;;15.70;13.43;;;12.50;59.00;;;;;;1497052;39;20118;-60
2021/04/10 05:12:46;;;;;;;16.38;13.77;;;12.50;58.90;;;;;;1493946;39;20042;-59
2021/04/10 05:14:07;;;;;;;16.67;13.60;;;12.50;58.90;;;;;;1497325;39;20034;-60
2021/04/10 05:15:28;;;;;;;21.02;14.13;;;12.50;58.90;;;;;;1494079;39;20031;-60
2021/04/10 05:16:49;;;;;;;14.50;13.00;;;12.50;58.70;;;;;;1498067;39;20060;-60
2021/04/10 05:18:10;;;;;;;16.08;14.00;;;12.50;58.80;;;;;;1497800;39;20032;-60
2021/04/10 05:19:31;;;;;;;14.68;12.85;;;12.50;58.70;;;;;;1496361;39;20118;-60
2021/04/10 05:20:52;;;;;;;16.30;13.65;;;12.50;58.70;;;;;;1495783;39;20391;-60
2021/04/10 05:22:13;;;;;;;16.73;13.25;;;12.50;58.70;;;;;;1498774;39;20019;-60
2021/04/10 05:23:34;;;;;;;15.23;12.65;;;12.50;58.60;;;;;;1496929;39;20034;-60
2021/04/10 05:24:55;;;;;;;14.82;13.27;;;12.40;58.50;;;;;;1495296;39;20132;-60
2021/04/10 05:26:16;;;;;;;13.57;12.18;;;12.50;58.60;;;;;;1496986;39;20318;-59
2021/04/10 05:27:37;;;;;;;14.55;13.00;;;12.50;58.60;;;;;;1496587;39;20035;-59
2021/04/10 05:28:58;;;;;;;16.27;12.57;;;12.40;58.60;;;;;;1496631;39;20255;-60
2021/04/10 05:30:20;;;;;;;15.90;12.93;;;12.40;58.60;;;;;;1495874;39;20040;-59
2021/04/10 05:31:40;;;;;;;15.45;12.90;;;12.50;58.70;;;;;;1496496;39;20063;-60
2021/04/10 05:33:01;;;;;;;14.40;12.10;;;12.40;58.70;;;;;;1496349;39;20356;-61
2021/04/10 05:34:22;;;;;;;14.68;13.00;;;12.40;58.80;;;;;;1497732;39;20023;-61
2021/04/10 05:35:43;;;;;;;16.17;13.82;;;12.40;58.80;;;;;;1495554;39;20367;-60
2021/04/10 05:37:04;;;;;;;16.67;12.70;;;12.40;58.80;;;;;;1496934;39;20379;-60
2021/04/10 05:38:26;;;;;;;15.55;12.38;;;12.40;58.80;;;;;;1496379;39;20053;-60
2021/04/10 05:39:47;;;;;;;17.15;12.27;;;12.40;58.80;;;;;;1495805;39;20031;-60
2021/04/10 05:41:08;;;;;;;19.35;14.40;;;12.40;58.80;;;;;;1492886;39;20022;-60
2021/04/10 05:42:29;;;;;;;16.60;12.90;;;12.40;58.80;;;;;;1494222;39;20380;-59
2021/04/10 05:43:50;;;;;;;16.77;12.73;;;12.40;58.90;;;;;;1497624;39;20047;-60
2021/04/10 05:45:12;;;;;;;16.60;12.45;;;12.40;58.90;;;;;;1498579;39;20031;-60
2021/04/10 05:46:33;;;;;;;18.08;13.18;;;12.40;59.00;;;;;;1492165;39;20020;-59
2021/04/10 05:47:54;;;;;;;14.88;12.73;;;12.40;59.00;;;;;;1494725;39;20038;-60
2021/04/10 05:49:15;;;;;;;15.20;12.65;;;12.40;59.10;;;;;;1496178;39;20023;-60
2021/04/10 05:50:36;;;;;;;16.55;12.98;;;12.40;59.10;;;;;;1499235;39;20051;-60
2021/04/10 05:51:57;;;;;;;15.65;13.00;;;12.40;59.10;;;;;;1499085;39;20029;-62
2021/04/10 05:53:18;;;;;;;16.45;12.73;;;12.50;59.10;;;;;;1499595;39;20027;-61
2021/04/10 05:54:39;;;;;;;14.52;12.90;;;12.50;59.20;;;;;;1497163;39;20030;-60
2021/04/10 05:55:59;;;;;;;15.90;13.05;;;12.50;59.20;;;;;;1495982;39;20123;-59
2021/04/10 05:57:20;;;;;;;16.00;12.68;;;12.50;59.20;;;;;;1498022;39;20046;-61
2021/04/10 05:58:41;;;;;;;17.38;12.13;;;12.50;59.20;;;;;;1496804;39;20038;-60
2021/04/10 06:00:04;;;;;;;14.57;12.60;;;12.50;59.20;;;;;;1494870;39;20020;-60
2021/04/10 06:01:27;;;;;;;14.57;12.27;;;12.50;59.20;;;;;;1493981;39;20038;-60
2021/04/10 06:02:52;;;;;;;15.93;11.38;;;12.50;59.20;;;;;;1494318;39;20272;-60
2021/04/10 06:04:12;;;;;;;14.43;12.23;;;12.60;59.20;;;;;;1488668;39;20164;-61
2021/04/10 06:05:33;;;;;;;15.00;12.38;;;12.60;59.10;;;;;;1492643;39;20042;-60
2021/04/10 06:06:54;;;;;;;16.67;12.82;;;12.60;59.20;;;;;;1497126;39;20263;-59
2021/04/10 06:08:15;;;;;;;15.20;12.68;;;12.60;59.20;;;;;;1498993;39;20253;-60
2021/04/10 06:09:36;;;;;;;15.23;12.55;;;12.60;59.20;;;;;;1495515;39;20019;-61
2021/04/10 06:10:57;;;;;;;14.05;12.52;;;12.60;59.20;;;;;;1495917;39;20618;-59
2021/04/10 06:12:18;;;;;;;15.02;12.85;;;12.60;59.20;;;;;;1497873;39;20015;-58
2021/04/10 06:13:39;;;;;;;15.52;12.45;;;12.60;59.20;;;;;;1496458;39;20143;-60
2021/04/10 06:15:00;;;;;;;15.23;13.43;;;12.60;59.10;;;;;;1496898;39;20569;-60
2021/04/10 06:16:21;;;;;;;17.02;12.18;;;12.60;59.00;;;;;;1496754;39;20436;-60
2021/04/10 06:17:42;;;;;;;16.38;12.77;;;12.60;59.10;;;;;;1491679;39;20096;-60
2021/04/10 06:19:03;;;;;;;15.07;12.02;;;12.70;59.10;;;;;;1494367;39;20064;-60
2021/04/10 06:20:24;;;;;;;14.57;12.57;;;12.70;59.20;;;;;;1498628;39;20068;-60
2021/04/10 06:21:46;;;;;;;16.25;12.38;;;12.70;59.20;;;;;;1498161;39;20031;-60
2021/04/10 06:23:07;;;;;;;15.13;12.13;;;12.70;59.20;;;;;;1496240;39;20023;-59
2021/04/10 06:24:28;;;;;;;17.45;12.65;;;12.70;59.20;;;;;;1497232;39;20482;-60
2021/04/10 06:25:48;;;;;;;14.30;12.80;;;12.80;59.20;;;;;;1490333;39;20044;-60
2021/04/10 06:27:11;;;;;;;15.25;12.32;;;12.70;59.20;;;;;;1495779;39;20252;-60
2021/04/10 06:28:31;;;;;;;15.13;12.27;;;12.70;59.10;;;;;;1494393;39;20043;-60
2021/04/10 06:29:52;;;;;;;15.88;12.90;;;12.80;59.10;;;;;;1497322;39;20034;-60
2021/04/10 06:31:13;;;;;;;15.32;11.80;;;12.80;59.20;;;;;;1496787;39;20375;-60
2021/04/10 06:32:34;;;;;;;15.43;13.02;;;12.80;59.20;;;;;;1496242;39;20074;-60
2021/04/10 06:33:55;;;;;;;16.33;13.15;;;12.90;59.20;;;;;;1491262;39;20406;-60
2021/04/10 06:35:16;;;;;;;14.98;12.95;;;12.90;59.20;;;;;;1493628;39;20044;-59
2021/04/10 06:36:37;;;;;;;13.48;12.07;;;12.80;59.20;;;;;;1492984;39;20042;-61
2021/04/10 06:37:58;;;;;;;14.48;12.75;;;12.90;59.20;;;;;;1493581;39;20024;-60
2021/04/10 06:39:19;;;;;;;15.23;12.52;;;12.90;59.20;;;;;;1495914;39;20027;-61
2021/04/10 06:40:43;;;;;;;16.20;13.35;;;12.90;59.20;;;;;;1495538;39;20045;-59
2021/04/10 06:42:05;;;;;;;14.27;12.27;;;12.90;59.20;;;;;;1497280;39;20030;-61
2021/04/10 06:43:26;;;;;;;14.63;12.45;;;12.90;59.20;;;;;;1494166;39;20048;-61
2021/04/10 06:44:48;;;;;;;16.63;13.10;;;12.90;59.20;;;;;;1497693;39;20035;-60
2021/04/10 06:46:12;;;;;;;14.70;12.75;;;13.00;59.30;;;;;;1496202;39;20046;-60
2021/04/10 06:47:34;;;;;;;14.60;12.60;;;13.00;59.40;;;;;;1497618;39;20031;-60
2021/04/10 06:48:58;;;;;;;16.25;12.77;;;13.00;59.40;;;;;;1496132;39;20018;-60
2021/04/10 06:50:19;;;;;;;16.48;13.73;;;13.00;59.50;;;;;;1498601;39;20039;-61
2021/04/10 06:51:40;;;;;;;17.40;12.65;;;13.00;59.40;;;;;;1495846;39;20050;-61
2021/04/10 06:53:02;;;;;;;18.08;12.18;;;13.00;59.40;;;;;;1494973;39;20135;-60
2021/04/10 06:54:28;;;;;;;14.85;13.13;;;13.10;59.30;;;;;;1496954;39;20031;-60
2021/04/10 06:55:52;;;;;;;16.85;13.15;;;13.10;59.20;;;;;;1494828;39;20045;-59
2021/04/10 06:57:14;;;;;;;14.02;12.48;;;13.10;59.20;;;;;;1497670;39;20043;-59
2021/04/10 06:59:12;;;;;;;15.40;13.55;;;13.20;59.20;;;;;;1496107;39;20122;-60
2021/04/10 07:00:34;;;;;;;14.65;12.35;;;13.20;59.30;;;;;;1493957;39;20027;-60